Time;durP1;ratioP1;P1;durP2;ratioP2;P2;SDS_P1;SDS_P2;PMS_P1;PMS_P2;Temp;Humidity;BMP_temperature;BMP_pressure;BME280_temperature;BME280_humidity;BME280_pressure;Samples;Min_cycle;Max_cycle;Signal;HPM_P1;HPM_P2
2023/12/16 00:00:39;;;;;;;55.87;2.73;;;;;;;;;;5074818;28;20456;-74
2023/12/16 00:03:06;;;;;;;58.67;3.20;;;;;;;;;;5074884;28;20477;-74
2023/12/16 00:05:33;;;;;;;56.20;2.97;;;;;;;;;;5074937;28;20482;-74
2023/12/16 00:08:00;;;;;;;55.47;2.60;;;;;;;;;;5075164;28;20450;-74
2023/12/16 00:10:27;;;;;;;56.00;3.20;;;;;;;;;;5074855;28;20459;-74
2023/12/16 00:12:56;;;;;;;56.00;2.60;;;;;;;;;;5074696;28;20852;-75
2023/12/16 00:15:23;;;;;;;56.27;2.93;;;;;;;;;;5074783;28;20541;-74
2023/12/16 00:17:50;;;;;;;56.10;3.60;;;;;;;;;;5074627;28;20448;-74
2023/12/16 00:20:17;;;;;;;55.93;3.13;;;;;;;;;;5074674;28;20456;-74
2023/12/16 00:22:45;;;;;;;57.07;2.77;;;;;;;;;;5074265;28;20465;-74
2023/12/16 00:25:13;;;;;;;56.63;3.07;;;;;;;;;;5074634;28;20783;-74
2023/12/16 00:27:40;;;;;;;55.87;2.90;;;;;;;;;;5074512;28;20446;-75
2023/12/16 00:30:09;;;;;;;55.83;2.73;;;;;;;;;;5074777;28;20500;-75
2023/12/16 00:32:39;;;;;;;56.07;2.40;;;;;;;;;;5060825;28;21010;-74
2023/12/16 00:35:07;;;;;;;56.20;2.60;;;;;;;;;;5068091;28;20459;-75
2023/12/16 00:37:34;;;;;;;55.90;2.90;;;;;;;;;;5048361;28;20955;-74
2023/12/16 00:40:01;;;;;;;55.80;2.60;;;;;;;;;;5054649;28;20469;-75
2023/12/16 00:42:28;;;;;;;55.90;2.70;;;;;;;;;;5069615;28;20477;-75
2023/12/16 00:44:57;;;;;;;55.53;2.13;;;;;;;;;;5074128;28;20450;-75
2023/12/16 00:47:26;;;;;;;58.37;2.83;;;;;;;;;;5061141;28;21055;-75
2023/12/16 00:49:53;;;;;;;56.20;3.27;;;;;;;;;;5069110;28;20549;-75
2023/12/16 00:52:20;;;;;;;55.87;3.07;;;;;;;;;;5068370;28;20468;-75
2023/12/16 00:54:48;;;;;;;55.70;2.90;;;;;;;;;;5057120;28;20445;-75
2023/12/16 00:57:15;;;;;;;56.03;2.90;;;;;;;;;;5051719;28;20482;-75
2023/12/16 00:59:43;;;;;;;56.00;2.50;;;;;;;;;;5063104;28;20461;-75
2023/12/16 01:02:10;;;;;;;56.50;3.33;;;;;;;;;;5056324;28;20485;-75
2023/12/16 01:04:38;;;;;;;57.80;5.33;;;;;;;;;;5065555;28;20445;-75
2023/12/16 01:07:05;;;;;;;55.90;2.80;;;;;;;;;;5061614;28;20491;-75
2023/12/16 01:09:32;;;;;;;55.60;2.50;;;;;;;;;;5055483;28;20957;-75
2023/12/16 01:11:59;;;;;;;55.63;2.50;;;;;;;;;;5062853;28;20841;-75
2023/12/16 01:14:26;;;;;;;58.77;4.10;;;;;;;;;;5065730;28;20461;-75
2023/12/16 01:16:53;;;;;;;56.37;3.20;;;;;;;;;;5063938;28;20449;-75
2023/12/16 01:19:21;;;;;;;55.67;2.60;;;;;;;;;;5073763;28;20954;-75
2023/12/16 01:21:49;;;;;;;55.80;2.47;;;;;;;;;;5064696;28;20484;-75
2023/12/16 01:24:16;;;;;;;55.37;2.63;;;;;;;;;;5065490;28;20514;-75
2023/12/16 01:26:43;;;;;;;56.57;3.70;;;;;;;;;;5064746;28;20493;-75
2023/12/16 01:29:10;;;;;;;55.73;2.50;;;;;;;;;;5057523;28;20552;-75
2023/12/16 01:31:37;;;;;;;57.60;2.93;;;;;;;;;;5061676;28;20889;-75
2023/12/16 01:34:04;;;;;;;55.60;2.40;;;;;;;;;;5064863;28;20446;-75
2023/12/16 01:36:31;;;;;;;56.20;2.87;;;;;;;;;;5073258;28;20796;-75
2023/12/16 01:39:00;;;;;;;55.77;2.30;;;;;;;;;;5073262;28;20821;-75
2023/12/16 01:41:27;;;;;;;56.00;3.03;;;;;;;;;;5072744;28;20476;-75
2023/12/16 01:43:54;;;;;;;55.73;2.57;;;;;;;;;;5073200;28;20465;-75
2023/12/16 01:46:22;;;;;;;55.67;2.63;;;;;;;;;;5073202;28;20490;-75
2023/12/16 01:48:49;;;;;;;55.70;2.10;;;;;;;;;;5072932;28;20971;-75
2023/12/16 01:51:17;;;;;;;55.50;2.50;;;;;;;;;;5072763;28;20841;-75
2023/12/16 01:53:44;;;;;;;55.63;2.40;;;;;;;;;;5073048;28;20454;-75
2023/12/16 01:56:13;;;;;;;57.07;3.43;;;;;;;;;;5072772;28;20825;-75
2023/12/16 01:58:40;;;;;;;55.57;2.67;;;;;;;;;;5072741;28;20450;-75
2023/12/16 02:01:07;;;;;;;56.53;2.70;;;;;;;;;;5072719;28;20485;-75
2023/12/16 02:03:37;;;;;;;55.90;2.67;;;;;;;;;;5072934;28;20457;-75
2023/12/16 02:06:04;;;;;;;57.80;4.03;;;;;;;;;;5072630;28;20450;-75
2023/12/16 02:08:31;;;;;;;56.00;2.50;;;;;;;;;;5072694;28;20850;-75
2023/12/16 02:10:59;;;;;;;56.77;3.73;;;;;;;;;;5072150;28;20536;-75
2023/12/16 02:13:27;;;;;;;55.70;2.87;;;;;;;;;;5072321;28;20440;-75
2023/12/16 02:15:54;;;;;;;56.00;3.20;;;;;;;;;;5072580;28;20557;-75
2023/12/16 02:18:21;;;;;;;57.23;3.73;;;;;;;;;;5072423;28;20455;-75
2023/12/16 02:20:48;;;;;;;56.30;3.10;;;;;;;;;;5072350;28;20476;-75
2023/12/16 02:23:17;;;;;;;56.20;2.60;;;;;;;;;;5072226;28;20473;-75
2023/12/16 02:25:45;;;;;;;56.47;3.13;;;;;;;;;;5072568;28;20445;-75
2023/12/16 02:28:12;;;;;;;57.47;3.50;;;;;;;;;;5072501;28;20888;-75
2023/12/16 02:30:40;;;;;;;59.23;3.57;;;;;;;;;;5072057;28;20579;-75
2023/12/16 02:33:07;;;;;;;55.53;2.20;;;;;;;;;;5071927;28;20852;-75
2023/12/16 02:35:34;;;;;;;55.80;3.07;;;;;;;;;;5072198;28;20979;-75
2023/12/16 02:38:01;;;;;;;55.50;2.30;;;;;;;;;;5071859;28;20447;-75
2023/12/16 02:40:30;;;;;;;56.40;3.07;;;;;;;;;;5071759;28;20770;-75
2023/12/16 02:42:57;;;;;;;55.90;2.50;;;;;;;;;;5071764;28;20478;-75
2023/12/16 02:45:25;;;;;;;55.90;3.43;;;;;;;;;;5071924;28;20872;-75
2023/12/16 02:47:53;;;;;;;55.70;2.40;;;;;;;;;;5071674;28;20489;-75
2023/12/16 02:50:20;;;;;;;56.40;3.17;;;;;;;;;;5071707;28;20459;-75
2023/12/16 02:52:47;;;;;;;55.47;2.20;;;;;;;;;;5071510;28;20875;-75
2023/12/16 02:55:14;;;;;;;56.87;2.90;;;;;;;;;;5071773;28;20472;-75
2023/12/16 02:57:42;;;;;;;56.03;3.00;;;;;;;;;;5071638;28;20450;-75
2023/12/16 03:00:10;;;;;;;56.43;2.57;;;;;;;;;;5070966;28;20457;-75
2023/12/16 03:02:37;;;;;;;55.70;3.00;;;;;;;;;;5062146;28;20486;-75
2023/12/16 03:05:04;;;;;;;55.60;2.50;;;;;;;;;;5061428;28;20453;-75
2023/12/16 03:07:32;;;;;;;56.23;3.27;;;;;;;;;;5063313;28;20490;-74
2023/12/16 03:09:59;;;;;;;55.57;2.57;;;;;;;;;;5062599;28;20452;-75
2023/12/16 03:12:26;;;;;;;55.90;2.73;;;;;;;;;;5063061;28;20472;-75
2023/12/16 03:14:54;;;;;;;58.30;2.97;;;;;;;;;;5071272;28;20881;-75
2023/12/16 03:17:21;;;;;;;55.53;2.20;;;;;;;;;;5071547;28;20516;-75
2023/12/16 03:19:49;;;;;;;55.50;2.57;;;;;;;;;;5071641;28;20463;-75
2023/12/16 03:22:16;;;;;;;55.60;2.40;;;;;;;;;;5071057;28;20469;-75
2023/12/16 03:24:43;;;;;;;55.77;2.40;;;;;;;;;;5070639;28;20822;-75
2023/12/16 03:27:10;;;;;;;56.63;3.00;;;;;;;;;;5071781;28;20492;-75
2023/12/16 03:29:37;;;;;;;55.77;2.40;;;;;;;;;;5070826;28;20965;-75
2023/12/16 03:32:06;;;;;;;55.60;2.47;;;;;;;;;;5070785;28;20475;-75
2023/12/16 03:34:33;;;;;;;56.20;2.93;;;;;;;;;;5071087;28;20979;-75
2023/12/16 03:37:00;;;;;;;55.87;2.80;;;;;;;;;;5071161;28;20448;-75
2023/12/16 03:39:27;;;;;;;55.70;2.10;;;;;;;;;;5071243;28;20445;-75
2023/12/16 03:41:54;;;;;;;61.00;3.47;;;;;;;;;;5070510;28;20471;-75
2023/12/16 03:44:21;;;;;;;55.57;2.47;;;;;;;;;;5071226;28;20456;-75
2023/12/16 03:46:48;;;;;;;55.57;2.17;;;;;;;;;;5071158;28;20853;-75
2023/12/16 03:49:17;;;;;;;56.30;2.70;;;;;;;;;;5071136;28;20509;-75
2023/12/16 03:51:44;;;;;;;56.40;2.47;;;;;;;;;;5070642;28;20468;-75
2023/12/16 03:54:11;;;;;;;56.63;3.00;;;;;;;;;;5071137;28;20449;-75
2023/12/16 03:56:38;;;;;;;56.87;3.10;;;;;;;;;;5070855;28;20472;-75
2023/12/16 03:59:05;;;;;;;55.83;2.93;;;;;;;;;;5070985;28;20452;-75
2023/12/16 04:01:32;;;;;;;55.97;2.47;;;;;;;;;;5070758;28;20472;-75
2023/12/16 04:04:00;;;;;;;55.60;3.23;;;;;;;;;;5071258;28;20453;-75
2023/12/16 04:06:28;;;;;;;56.10;2.70;;;;;;;;;;5070738;28;20446;-75
2023/12/16 04:08:55;;;;;;;56.63;3.23;;;;;;;;;;5070785;28;20448;-75
2023/12/16 04:11:22;;;;;;;56.90;3.20;;;;;;;;;;5070409;28;20469;-75
2023/12/16 04:13:49;;;;;;;60.03;3.30;;;;;;;;;;5071146;28;20441;-75
2023/12/16 04:16:16;;;;;;;55.90;2.40;;;;;;;;;;5070917;28;20446;-75
2023/12/16 04:18:44;;;;;;;55.27;2.27;;;;;;;;;;5071326;28;20451;-75
2023/12/16 04:21:11;;;;;;;55.70;2.90;;;;;;;;;;5071325;28;20857;-75
2023/12/16 04:23:40;;;;;;;57.63;3.03;;;;;;;;;;5070889;28;20472;-75
2023/12/16 04:26:07;;;;;;;55.60;2.50;;;;;;;;;;5070832;28;20561;-75
2023/12/16 04:28:34;;;;;;;56.20;2.70;;;;;;;;;;5070353;28;20490;-75
2023/12/16 04:31:01;;;;;;;56.40;3.50;;;;;;;;;;5070379;28;20961;-75
2023/12/16 04:33:29;;;;;;;56.00;3.07;;;;;;;;;;5070589;28;20490;-75
2023/12/16 04:35:56;;;;;;;56.07;3.20;;;;;;;;;;5072312;28;20953;-75
2023/12/16 04:38:23;;;;;;;56.10;2.87;;;;;;;;;;5074449;28;20447;-75
2023/12/16 04:40:51;;;;;;;55.50;2.27;;;;;;;;;;5074101;28;20443;-75
2023/12/16 04:43:18;;;;;;;55.67;2.77;;;;;;;;;;5074288;28;20450;-75
2023/12/16 04:45:46;;;;;;;55.90;2.77;;;;;;;;;;5074341;28;20438;-75
2023/12/16 04:48:14;;;;;;;56.00;2.63;;;;;;;;;;5074102;28;20487;-75
2023/12/16 04:50:41;;;;;;;55.77;2.87;;;;;;;;;;5073830;28;20472;-75
2023/12/16 04:53:08;;;;;;;55.90;2.87;;;;;;;;;;5073989;28;20473;-75
2023/12/16 04:55:35;;;;;;;55.63;2.13;;;;;;;;;;5074253;28;20485;-75
2023/12/16 04:58:03;;;;;;;55.67;2.33;;;;;;;;;;5074184;28;20541;-75
2023/12/16 05:00:31;;;;;;;55.70;2.80;;;;;;;;;;5073466;28;20477;-75
2023/12/16 05:02:59;;;;;;;56.50;3.57;;;;;;;;;;5057190;28;20491;-75
2023/12/16 05:05:26;;;;;;;55.30;2.00;;;;;;;;;;5065341;28;20905;-75
2023/12/16 05:07:53;;;;;;;56.83;2.67;;;;;;;;;;5073762;28;20497;-72
2023/12/16 05:10:20;;;;;;;55.77;2.60;;;;;;;;;;5070217;28;20459;-75
2023/12/16 05:12:47;;;;;;;55.57;3.07;;;;;;;;;;5061624;28;20833;-75
2023/12/16 05:15:16;;;;;;;56.00;2.40;;;;;;;;;;5073711;28;20446;-75
2023/12/16 05:17:43;;;;;;;56.00;2.87;;;;;;;;;;5073397;28;20511;-75
2023/12/16 05:20:10;;;;;;;55.47;2.67;;;;;;;;;;5073696;28;20482;-75
2023/12/16 05:22:37;;;;;;;55.97;3.00;;;;;;;;;;5073346;28;20473;-75
2023/12/16 05:25:05;;;;;;;55.53;2.73;;;;;;;;;;5073746;28;20446;-75
2023/12/16 05:27:32;;;;;;;55.70;2.80;;;;;;;;;;5073283;28;20489;-75
2023/12/16 05:29:59;;;;;;;55.60;2.80;;;;;;;;;;5073449;28;20446;-75
2023/12/16 05:32:28;;;;;;;55.37;2.27;;;;;;;;;;5072960;28;20536;-75
2023/12/16 05:34:55;;;;;;;55.63;2.90;;;;;;;;;;5073188;28;20450;-75
2023/12/16 05:37:23;;;;;;;55.70;2.30;;;;;;;;;;5073437;28;20455;-75
2023/12/16 05:39:50;;;;;;;55.80;2.70;;;;;;;;;;5073202;28;20963;-75
2023/12/16 05:42:17;;;;;;;55.47;2.60;;;;;;;;;;5073123;28;20484;-75
2023/12/16 05:44:44;;;;;;;55.80;2.40;;;;;;;;;;5072880;28;20457;-75
2023/12/16 05:47:11;;;;;;;55.37;2.20;;;;;;;;;;5071958;28;20450;-75
2023/12/16 05:49:40;;;;;;;55.27;2.20;;;;;;;;;;5073096;28;20959;-75
2023/12/16 05:52:07;;;;;;;56.00;2.50;;;;;;;;;;5072692;28;20480;-75
2023/12/16 05:54:34;;;;;;;55.80;2.30;;;;;;;;;;5073052;28;20468;-75
2023/12/16 05:57:01;;;;;;;56.27;3.13;;;;;;;;;;5073283;28;20442;-74
2023/12/16 05:59:29;;;;;;;55.33;2.20;;;;;;;;;;5072904;28;20811;-73
2023/12/16 06:01:56;;;;;;;56.10;3.70;;;;;;;;;;5072648;28;20470;-73
2023/12/16 06:04:23;;;;;;;55.80;2.60;;;;;;;;;;5072923;28;20451;-73
2023/12/16 06:06:51;;;;;;;55.60;2.30;;;;;;;;;;5072902;28;20473;-73
2023/12/16 06:09:18;;;;;;;55.80;2.93;;;;;;;;;;5072746;28;20557;-74
2023/12/16 06:11:45;;;;;;;55.80;2.23;;;;;;;;;;5072309;28;20469;-73
2023/12/16 06:14:12;;;;;;;55.57;2.30;;;;;;;;;;5072392;28;20449;-73
2023/12/16 06:16:40;;;;;;;56.77;2.80;;;;;;;;;;5072454;28;20828;-73
2023/12/16 06:19:07;;;;;;;55.80;2.50;;;;;;;;;;5072821;28;20447;-73
2023/12/16 06:21:34;;;;;;;55.57;2.10;;;;;;;;;;5072283;28;20481;-73
2023/12/16 06:24:04;;;;;;;56.60;2.83;;;;;;;;;;5072475;28;20829;-73
2023/12/16 06:26:31;;;;;;;57.80;3.30;;;;;;;;;;5072506;28;20459;-73
2023/12/16 06:28:58;;;;;;;57.00;3.40;;;;;;;;;;5071989;28;21034;-73
2023/12/16 06:31:25;;;;;;;56.83;3.33;;;;;;;;;;5071933;28;20461;-75
2023/12/16 06:33:52;;;;;;;55.57;2.53;;;;;;;;;;5072225;28;20434;-73
2023/12/16 06:36:19;;;;;;;55.90;2.83;;;;;;;;;;5072107;28;20456;-73
2023/12/16 06:38:46;;;;;;;55.70;2.53;;;;;;;;;;5071972;28;20477;-74
2023/12/16 06:41:15;;;;;;;55.67;2.50;;;;;;;;;;5071426;28;20462;-74
2023/12/16 06:43:42;;;;;;;55.80;2.47;;;;;;;;;;5071876;28;20821;-73
2023/12/16 06:46:09;;;;;;;55.60;2.23;;;;;;;;;;5072093;28;20451;-73
2023/12/16 06:48:36;;;;;;;55.80;3.03;;;;;;;;;;5071880;28;21031;-73
2023/12/16 06:51:04;;;;;;;56.30;2.90;;;;;;;;;;5071579;28;20442;-73
2023/12/16 06:53:33;;;;;;;55.80;2.90;;;;;;;;;;5071962;28;20445;-73
2023/12/16 06:56:00;;;;;;;55.00;2.30;;;;;;;;;;5071972;28;20454;-73
2023/12/16 06:58:29;;;;;;;55.50;2.23;;;;;;;;;;5070943;28;20939;-73
2023/12/16 07:00:56;;;;;;;55.70;2.83;;;;;;;;;;5071268;28;20450;-73
2023/12/16 07:03:23;;;;;;;56.00;3.03;;;;;;;;;;5065870;28;20456;-73
2023/12/16 07:05:50;;;;;;;56.10;2.90;;;;;;;;;;5055939;28;20448;-73
2023/12/16 07:08:17;;;;;;;55.90;2.40;;;;;;;;;;5059384;28;20475;-73
2023/12/16 07:10:44;;;;;;;56.37;3.17;;;;;;;;;;5051627;28;20454;-74
2023/12/16 07:13:11;;;;;;;55.80;2.67;;;;;;;;;;5054049;28;20493;-73
2023/12/16 07:15:40;;;;;;;58.10;3.47;;;;;;;;;;5063041;28;20447;-74
2023/12/16 07:18:07;;;;;;;55.70;2.10;;;;;;;;;;5071445;28;20811;-73
2023/12/16 07:20:34;;;;;;;56.00;2.50;;;;;;;;;;5071179;28;20447;-73
2023/12/16 07:23:01;;;;;;;55.97;2.90;;;;;;;;;;5071129;28;20469;-73
2023/12/16 07:25:28;;;;;;;55.77;2.67;;;;;;;;;;5071429;28;20503;-73
2023/12/16 07:27:56;;;;;;;55.70;2.80;;;;;;;;;;5071250;28;20491;-73
2023/12/16 07:30:23;;;;;;;55.60;2.40;;;;;;;;;;5071264;28;20446;-73
2023/12/16 07:32:51;;;;;;;55.80;2.50;;;;;;;;;;5070943;28;20496;-73
2023/12/16 07:35:18;;;;;;;61.90;3.60;;;;;;;;;;5071024;28;20452;-73
2023/12/16 07:37:45;;;;;;;57.10;3.30;;;;;;;;;;5071371;28;20457;-73
2023/12/16 07:40:13;;;;;;;56.07;2.40;;;;;;;;;;5071778;28;20450;-73
2023/12/16 07:42:40;;;;;;;55.70;2.50;;;;;;;;;;5071031;28;20469;-73
2023/12/16 07:45:08;;;;;;;55.90;2.70;;;;;;;;;;5070950;28;20537;-73
2023/12/16 07:47:35;;;;;;;55.90;3.07;;;;;;;;;;5071163;28;20454;-73
2023/12/16 07:50:04;;;;;;;55.93;2.63;;;;;;;;;;5071098;28;20442;-73
2023/12/16 07:52:31;;;;;;;56.37;3.10;;;;;;;;;;5071105;28;20463;-73
2023/12/16 07:54:59;;;;;;;55.50;2.40;;;;;;;;;;5071170;28;20466;-74
2023/12/16 07:57:26;;;;;;;56.00;2.60;;;;;;;;;;5071100;28;20450;-74
2023/12/16 07:59:53;;;;;;;55.90;2.40;;;;;;;;;;5071130;28;20908;-74
2023/12/16 08:02:20;;;;;;;55.80;3.00;;;;;;;;;;5070650;28;20862;-73
2023/12/16 08:04:48;;;;;;;55.67;2.60;;;;;;;;;;5071005;28;20440;-74
2023/12/16 08:07:17;;;;;;;55.87;2.60;;;;;;;;;;5071046;28;20446;-74
2023/12/16 08:09:44;;;;;;;55.57;2.10;;;;;;;;;;5070928;28;20492;-76
2023/12/16 08:12:11;;;;;;;55.27;2.50;;;;;;;;;;5074697;28;20477;-74
2023/12/16 08:14:38;;;;;;;55.80;2.70;;;;;;;;;;5074756;28;20446;-74
2023/12/16 08:17:06;;;;;;;60.23;2.73;;;;;;;;;;5074714;28;20463;-73
2023/12/16 08:19:34;;;;;;;55.47;2.23;;;;;;;;;;5074895;28;20460;-74
2023/12/16 08:22:01;;;;;;;57.90;2.73;;;;;;;;;;5074308;28;20465;-74
2023/12/16 08:24:31;;;;;;;55.77;2.23;;;;;;;;;;5074447;28;20464;-74
2023/12/16 08:26:57;;;;;;;55.67;2.70;;;;;;;;;;5074697;28;20885;-74
2023/12/16 08:29:24;;;;;;;55.17;2.40;;;;;;;;;;5074392;28;20516;-74
2023/12/16 08:31:51;;;;;;;55.90;2.93;;;;;;;;;;5074595;28;20473;-73
2023/12/16 08:34:19;;;;;;;55.57;2.40;;;;;;;;;;5074537;28;20452;-75
2023/12/16 08:36:48;;;;;;;55.77;2.40;;;;;;;;;;5074571;28;20501;-74
2023/12/16 08:39:15;;;;;;;55.77;2.20;;;;;;;;;;5075015;28;20450;-74
2023/12/16 08:41:44;;;;;;;55.47;2.43;;;;;;;;;;5074458;28;20475;-74
2023/12/16 08:44:11;;;;;;;55.43;2.30;;;;;;;;;;5074130;28;20446;-74
2023/12/16 08:46:41;;;;;;;55.57;2.43;;;;;;;;;;5074552;28;20452;-74
2023/12/16 08:49:08;;;;;;;55.90;2.77;;;;;;;;;;5074310;28;20488;-74
2023/12/16 08:51:36;;;;;;;55.50;2.07;;;;;;;;;;5073817;28;20467;-74
2023/12/16 08:54:03;;;;;;;55.70;2.70;;;;;;;;;;5074074;28;20440;-74
2023/12/16 08:56:30;;;;;;;55.73;2.40;;;;;;;;;;5074066;28;20442;-74
2023/12/16 08:58:58;;;;;;;56.73;3.27;;;;;;;;;;5074273;28;20445;-74
2023/12/16 09:01:25;;;;;;;57.10;3.03;;;;;;;;;;5073836;28;20473;-75
2023/12/16 09:03:52;;;;;;;56.00;3.00;;;;;;;;;;5074130;28;20447;-74
2023/12/16 09:06:20;;;;;;;55.47;2.10;;;;;;;;;;5073782;28;20453;-74
2023/12/16 09:08:47;;;;;;;55.37;2.50;;;;;;;;;;5073747;28;20883;-74
2023/12/16 09:11:16;;;;;;;56.10;3.43;;;;;;;;;;5073348;28;20470;-75
2023/12/16 09:13:43;;;;;;;55.80;2.60;;;;;;;;;;5073917;28;20554;-75
2023/12/16 09:16:12;;;;;;;55.50;1.90;;;;;;;;;;5074008;28;20453;-75
2023/12/16 09:18:39;;;;;;;55.67;2.67;;;;;;;;;;5073717;28;20801;-75
2023/12/16 09:21:08;;;;;;;55.80;2.83;;;;;;;;;;5073182;28;20536;-75
2023/12/16 09:23:36;;;;;;;55.97;2.80;;;;;;;;;;5072651;28;20543;-75
2023/12/16 09:26:04;;;;;;;56.10;3.33;;;;;;;;;;5073845;28;20544;-75
2023/12/16 09:28:32;;;;;;;55.60;2.30;;;;;;;;;;5073406;28;20497;-76
2023/12/16 09:30:59;;;;;;;55.90;2.40;;;;;;;;;;5073195;28;20436;-75
2023/12/16 09:33:27;;;;;;;55.90;2.30;;;;;;;;;;5073641;28;20438;-75
2023/12/16 09:35:54;;;;;;;55.40;2.47;;;;;;;;;;5073256;28;20446;-75
2023/12/16 09:38:21;;;;;;;54.97;2.00;;;;;;;;;;5073213;28;20455;-76
2023/12/16 09:40:48;;;;;;;55.27;1.80;;;;;;;;;;5073226;28;20833;-75
2023/12/16 09:43:16;;;;;;;56.00;2.20;;;;;;;;;;5073483;28;20460;-75
2023/12/16 09:45:46;;;;;;;56.30;2.40;;;;;;;;;;5073373;28;20447;-75
2023/12/16 09:48:14;;;;;;;55.70;2.50;;;;;;;;;;5073306;28;20442;-75
2023/12/16 09:50:43;;;;;;;55.67;2.40;;;;;;;;;;5073079;28;20445;-75
2023/12/16 09:53:10;;;;;;;55.40;2.40;;;;;;;;;;5073338;28;20977;-75
2023/12/16 09:55:37;;;;;;;55.87;2.20;;;;;;;;;;5073204;28;20457;-75
2023/12/16 09:58:05;;;;;;;55.57;2.23;;;;;;;;;;5073081;28;20949;-75
2023/12/16 10:00:33;;;;;;;55.90;2.40;;;;;;;;;;5072880;28;20976;-76
2023/12/16 10:03:00;;;;;;;55.47;2.30;;;;;;;;;;5073109;28;20470;-76
2023/12/16 10:05:28;;;;;;;55.50;2.30;;;;;;;;;;5072809;28;20952;-77
2023/12/16 10:08:01;;;;;;;54.67;1.90;;;;;;;;;;5072864;28;20434;-76
2023/12/16 10:10:28;;;;;;;55.33;2.10;;;;;;;;;;5073069;28;20501;-76
2023/12/16 10:12:55;;;;;;;57.20;4.57;;;;;;;;;;5072799;28;20993;-76
2023/12/16 10:15:32;;;;;;;56.07;2.30;;;;;;;;;;5072920;28;20454;-76
2023/12/16 10:18:00;;;;;;;55.73;2.70;;;;;;;;;;5072610;28;20532;-76
2023/12/16 10:20:27;;;;;;;55.40;2.40;;;;;;;;;;5072657;28;20446;-76
2023/12/16 10:22:55;;;;;;;55.70;2.47;;;;;;;;;;5072719;28;20891;-76
2023/12/16 10:25:23;;;;;;;55.53;2.13;;;;;;;;;;5072646;28;20478;-76
2023/12/16 10:27:50;;;;;;;56.50;3.20;;;;;;;;;;5072662;28;20464;-76
2023/12/16 10:30:18;;;;;;;55.60;2.33;;;;;;;;;;5072349;28;20556;-77
2023/12/16 10:32:45;;;;;;;55.30;2.27;;;;;;;;;;5071942;28;20466;-76
2023/12/16 10:35:12;;;;;;;55.17;2.20;;;;;;;;;;5072270;28;20955;-76
2023/12/16 10:37:49;;;;;;;54.97;1.97;;;;;;;;;;5072307;28;20449;-77
2023/12/16 10:40:16;;;;;;;55.63;2.10;;;;;;;;;;5072718;28;20449;-77
2023/12/16 10:42:44;;;;;;;55.20;1.93;;;;;;;;;;5072164;28;20476;-76
2023/12/16 10:45:12;;;;;;;55.70;2.00;;;;;;;;;;5072347;28;20443;-75
2023/12/16 10:47:39;;;;;;;56.13;2.00;;;;;;;;;;5067237;28;20463;-76
2023/12/16 10:50:07;;;;;;;55.83;2.33;;;;;;;;;;5055310;28;20555;-76
2023/12/16 10:52:36;;;;;;;56.37;2.37;;;;;;;;;;5052361;28;20481;-75
2023/12/16 10:55:04;;;;;;;55.40;2.00;;;;;;;;;;5057857;28;20452;-75
2023/12/16 10:57:34;;;;;;;56.00;2.60;;;;;;;;;;5068261;28;20458;-75
2023/12/16 11:00:05;;;;;;;55.33;2.10;;;;;;;;;;5063725;28;20796;-75
2023/12/16 11:02:32;;;;;;;55.50;1.87;;;;;;;;;;5050247;28;20490;-75
2023/12/16 11:05:03;;;;;;;55.80;2.03;;;;;;;;;;5050069;28;20456;-75
2023/12/16 11:07:31;;;;;;;55.57;2.57;;;;;;;;;;5043704;28;20896;-75
2023/12/16 11:09:58;;;;;;;55.57;3.13;;;;;;;;;;5036755;28;20485;-74
2023/12/16 11:12:25;;;;;;;55.57;2.10;;;;;;;;;;5031538;28;21150;-74
2023/12/16 11:14:54;;;;;;;55.40;2.27;;;;;;;;;;5031522;28;20942;-75
2023/12/16 11:17:28;;;;;;;56.57;2.67;;;;;;;;;;5031264;28;20462;-74
2023/12/16 11:19:58;;;;;;;57.17;3.43;;;;;;;;;;5043430;28;20477;-74
2023/12/16 11:22:24;;;;;;;55.40;2.40;;;;;;;;;;5038934;28;20474;-74
2023/12/16 11:24:52;;;;;;;55.37;2.10;;;;;;;;;;5031160;28;20518;-74
2023/12/16 11:27:20;;;;;;;54.67;1.97;;;;;;;;;;5033559;28;20465;-74
2023/12/16 11:29:47;;;;;;;56.23;2.43;;;;;;;;;;5045558;28;20497;-74
2023/12/16 11:32:14;;;;;;;56.30;2.00;;;;;;;;;;5041855;28;20464;-74
2023/12/16 11:34:49;;;;;;;55.70;1.90;;;;;;;;;;5032056;28;20462;-74
2023/12/16 11:37:16;;;;;;;55.77;2.60;;;;;;;;;;5038319;28;21034;-74
2023/12/16 11:39:45;;;;;;;55.27;2.00;;;;;;;;;;5032517;28;20443;-74
2023/12/16 11:42:13;;;;;;;56.53;2.63;;;;;;;;;;5033520;28;20534;-74
2023/12/16 11:44:50;;;;;;;56.20;2.97;;;;;;;;;;5038399;28;20456;-74
2023/12/16 11:47:24;;;;;;;55.80;2.30;;;;;;;;;;5031223;28;20452;-74
2023/12/16 11:49:53;;;;;;;56.43;4.20;;;;;;;;;;5031841;28;20482;-74
2023/12/16 11:52:21;;;;;;;55.77;3.03;;;;;;;;;;5031131;28;20501;-74
2023/12/16 11:54:52;;;;;;;55.40;2.17;;;;;;;;;;5031844;28;20859;-74
2023/12/16 11:57:22;;;;;;;55.70;2.60;;;;;;;;;;5031142;28;20460;-74
2023/12/16 11:59:49;;;;;;;55.70;2.03;;;;;;;;;;5030621;28;20456;-74
2023/12/16 12:02:16;;;;;;;55.50;1.90;;;;;;;;;;5030402;28;20477;-74
2023/12/16 12:04:43;;;;;;;56.67;2.67;;;;;;;;;;5031394;28;20452;-74
2023/12/16 12:07:12;;;;;;;56.20;2.37;;;;;;;;;;5030378;28;20464;-74
2023/12/16 12:09:41;;;;;;;56.57;2.70;;;;;;;;;;5030701;28;20479;-74
2023/12/16 12:12:08;;;;;;;55.27;2.30;;;;;;;;;;5030707;28;20978;-74
2023/12/16 12:14:38;;;;;;;56.50;2.50;;;;;;;;;;5037769;28;20480;-74
2023/12/16 12:17:06;;;;;;;55.20;2.00;;;;;;;;;;5034546;28;20475;-74
2023/12/16 12:19:33;;;;;;;55.87;2.03;;;;;;;;;;5042676;28;20454;-74
2023/12/16 12:22:00;;;;;;;55.40;2.37;;;;;;;;;;5040704;28;20466;-73
2023/12/16 12:24:28;;;;;;;55.43;2.00;;;;;;;;;;5031418;28;20463;-73
2023/12/16 12:26:56;;;;;;;56.67;2.60;;;;;;;;;;5031283;28;20452;-73
2023/12/16 12:29:23;;;;;;;56.67;3.27;;;;;;;;;;5030937;28;20515;-73
2023/12/16 12:31:52;;;;;;;56.73;2.60;;;;;;;;;;5043245;28;20524;-73
2023/12/16 12:34:19;;;;;;;56.90;2.47;;;;;;;;;;5031837;28;20517;-73
2023/12/16 12:36:47;;;;;;;56.37;2.97;;;;;;;;;;5035980;28;20446;-73
2023/12/16 12:39:16;;;;;;;56.83;3.20;;;;;;;;;;5034431;28;20461;-73
2023/12/16 12:41:44;;;;;;;55.90;2.20;;;;;;;;;;5038440;28;20498;-73
2023/12/16 12:44:12;;;;;;;56.20;2.30;;;;;;;;;;5031312;28;20448;-74
2023/12/16 12:46:46;;;;;;;56.40;2.80;;;;;;;;;;5032479;28;20508;-73
2023/12/16 12:49:13;;;;;;;60.67;3.93;;;;;;;;;;5032059;28;20480;-74
2023/12/16 12:51:49;;;;;;;56.60;2.50;;;;;;;;;;5031233;28;20876;-73
2023/12/16 12:54:16;;;;;;;56.60;2.90;;;;;;;;;;5031234;28;20453;-73
2023/12/16 12:56:44;;;;;;;56.37;2.40;;;;;;;;;;5031523;28;20506;-73
2023/12/16 12:59:11;;;;;;;56.47;2.60;;;;;;;;;;5034808;28;20540;-73
2023/12/16 13:01:38;;;;;;;56.20;2.30;;;;;;;;;;5034725;28;20462;-74
2023/12/16 13:04:06;;;;;;;56.30;2.70;;;;;;;;;;5035380;28;20826;-73
2023/12/16 13:06:33;;;;;;;57.60;3.07;;;;;;;;;;5034912;28;20468;-74
2023/12/16 13:09:00;;;;;;;56.80;2.77;;;;;;;;;;5034843;28;20446;-73
2023/12/16 13:11:27;;;;;;;57.47;3.30;;;;;;;;;;5033977;28;20489;-73
2023/12/16 13:13:55;;;;;;;56.70;3.00;;;;;;;;;;5035109;28;20460;-73
2023/12/16 13:16:22;;;;;;;56.30;2.83;;;;;;;;;;5034481;28;20448;-74
2023/12/16 13:18:52;;;;;;;56.27;2.80;;;;;;;;;;5034832;28;20834;-73
2023/12/16 13:21:19;;;;;;;56.60;2.80;;;;;;;;;;5034285;28;20469;-73
2023/12/16 13:23:46;;;;;;;56.27;2.20;;;;;;;;;;5034231;28;20511;-73
2023/12/16 13:26:14;;;;;;;56.60;2.97;;;;;;;;;;5034576;28;20455;-74
2023/12/16 13:28:41;;;;;;;57.07;2.70;;;;;;;;;;5034233;28;20518;-74
2023/12/16 13:31:10;;;;;;;59.40;4.07;;;;;;;;;;5033995;28;20569;-74
2023/12/16 13:33:37;;;;;;;56.47;2.10;;;;;;;;;;5033998;28;20449;-74
2023/12/16 13:36:04;;;;;;;56.50;2.37;;;;;;;;;;5034215;28;20446;-73
2023/12/16 13:38:31;;;;;;;56.20;2.57;;;;;;;;;;5033840;28;20442;-74
2023/12/16 13:40:58;;;;;;;56.30;3.10;;;;;;;;;;5033304;28;20438;-74
2023/12/16 13:43:25;;;;;;;56.30;2.27;;;;;;;;;;5033792;28;20446;-74
2023/12/16 13:45:53;;;;;;;56.30;2.80;;;;;;;;;;5033276;28;20441;-74
2023/12/16 13:48:21;;;;;;;56.80;2.60;;;;;;;;;;5033159;28;20821;-74
2023/12/16 13:50:48;;;;;;;55.67;2.50;;;;;;;;;;5032726;28;21024;-74
2023/12/16 13:53:15;;;;;;;57.57;2.70;;;;;;;;;;5032893;28;20861;-74
2023/12/16 13:55:42;;;;;;;55.87;2.60;;;;;;;;;;5033150;28;20471;-75
2023/12/16 13:58:09;;;;;;;56.30;2.50;;;;;;;;;;5032977;28;20452;-74
2023/12/16 14:00:36;;;;;;;56.13;2.17;;;;;;;;;;5032516;28;20448;-74
2023/12/16 14:03:04;;;;;;;55.80;2.17;;;;;;;;;;5032765;28;20483;-74
2023/12/16 14:05:32;;;;;;;56.50;2.73;;;;;;;;;;5033068;28;20451;-74
2023/12/16 14:08:01;;;;;;;56.17;2.30;;;;;;;;;;5032844;28;20453;-73
2023/12/16 14:10:28;;;;;;;56.17;2.30;;;;;;;;;;5032343;28;20974;-73
2023/12/16 14:12:55;;;;;;;56.47;2.43;;;;;;;;;;5038535;28;20492;-73
2023/12/16 14:15:23;;;;;;;56.40;2.50;;;;;;;;;;5034403;28;20451;-73
2023/12/16 14:17:50;;;;;;;57.00;3.20;;;;;;;;;;5032678;28;20452;-74
2023/12/16 14:20:17;;;;;;;56.20;2.17;;;;;;;;;;5032506;28;20458;-74
2023/12/16 14:22:49;;;;;;;56.30;2.43;;;;;;;;;;5032098;28;20832;-74
2023/12/16 14:25:16;;;;;;;56.30;2.70;;;;;;;;;;5032370;28;20471;-74
2023/12/16 14:27:43;;;;;;;56.13;2.17;;;;;;;;;;5032350;28;20450;-74
2023/12/16 14:30:10;;;;;;;55.90;2.13;;;;;;;;;;5032531;28;20485;-74
2023/12/16 14:32:38;;;;;;;56.37;2.77;;;;;;;;;;5032363;28;20509;-73